Time;durP1;ratioP1;P1;durP2;ratioP2;P2;SDS_P1;SDS_P2;PMS_P1;PMS_P2;Temp;Humidity;BMP_temperature;BMP_pressure;BME280_temperature;BME280_humidity;BME280_pressure;Samples;Min_cycle;Max_cycle;Signal;HPM_P1;HPM_P2
2020/12/26 00:00:49;;;;;;;17.20;10.27;;;;;;;-0.74;83.32;101514.84;5067667;28;20217;-63
2020/12/26 00:03:15;;;;;;;15.00;9.03;;;;;;;-0.75;83.66;101512.22;5063153;28;20987;-62
2020/12/26 00:05:41;;;;;;;14.93;9.77;;;;;;;-0.75;83.65;101500.00;5059622;28;20232;-62
2020/12/26 00:08:07;;;;;;;17.30;9.83;;;;;;;-0.75;83.65;101492.16;5059590;28;20225;-63
2020/12/26 00:10:34;;;;;;;16.83;9.33;;;;;;;-0.74;83.54;101498.25;5062488;28;20254;-63
2020/12/26 00:13:00;;;;;;;17.43;9.67;;;;;;;-0.74;83.88;101493.91;5059150;28;20213;-62
2020/12/26 00:15:26;;;;;;;18.30;9.87;;;;;;;-0.72;83.48;101504.38;5056784;28;20201;-63
2020/12/26 00:17:52;;;;;;;15.00;9.67;;;;;;;-0.71;83.75;101495.63;5062840;28;20234;-61
2020/12/26 00:20:19;;;;;;;19.00;9.67;;;;;;;-0.69;83.92;101504.31;5065126;28;20679;-63
2020/12/26 00:22:45;;;;;;;15.03;9.50;;;;;;;-0.68;84.01;101500.84;5063109;28;20205;-63
2020/12/26 00:25:12;;;;;;;17.30;9.10;;;;;;;-0.66;84.15;101499.09;5063942;28;20730;-61
2020/12/26 00:27:38;;;;;;;14.57;9.60;;;;;;;-0.63;84.12;101508.69;5059528;28;20212;-63
2020/12/26 00:30:06;;;;;;;17.10;9.53;;;;;;;-0.60;84.17;101503.44;5066598;28;20296;-63
2020/12/26 00:32:32;;;;;;;19.50;9.17;;;;;;;-0.57;84.02;101495.59;5068011;28;20666;-59
2020/12/26 00:34:59;;;;;;;13.00;8.67;;;;;;;-0.56;84.16;101499.94;5070046;28;20603;-62
2020/12/26 00:37:25;;;;;;;13.80;9.13;;;;;;;-0.55;84.03;101494.69;5066638;28;20255;-62
2020/12/26 00:39:52;;;;;;;14.40;8.97;;;;;;;-0.51;84.10;101498.16;5063314;28;20210;-63
2020/12/26 00:42:18;;;;;;;13.97;8.33;;;;;;;-0.50;84.23;101497.28;5059560;28;20193;-62
2020/12/26 00:44:44;;;;;;;15.53;9.10;;;;;;;-0.50;84.28;101495.53;5063405;28;20229;-63
2020/12/26 00:47:10;;;;;;;16.67;8.47;;;;;;;-0.48;84.19;101499.00;5060946;28;20250;-60
2020/12/26 00:49:36;;;;;;;13.80;8.10;;;;;;;-0.47;84.58;101499.88;5061048;28;20225;-63
2020/12/26 00:52:03;;;;;;;14.00;7.40;;;;;;;-0.47;84.54;101505.97;5061229;28;20219;-61
2020/12/26 00:54:29;;;;;;;16.73;8.33;;;;;;;-0.45;84.37;101504.22;5066830;28;20292;-63
2020/12/26 00:56:55;;;;;;;14.13;8.80;;;;;;;-0.43;84.35;101517.31;5066051;28;20196;-62
2020/12/26 00:59:21;;;;;;;13.63;8.93;;;;;;;-0.44;84.39;101511.22;5068726;28;20738;-62
2020/12/26 01:01:53;;;;;;;17.17;8.77;;;;;;;-0.42;84.67;101519.06;5065495;28;20197;-62
2020/12/26 01:04:19;;;;;;;16.87;7.90;;;;;;;-0.41;84.38;101518.19;5069577;28;20579;-63
2020/12/26 01:06:45;;;;;;;13.97;8.40;;;;;;;-0.41;84.72;101515.56;5068768;28;20208;-63
2020/12/26 01:09:12;;;;;;;17.90;7.60;;;;;;;-0.40;84.56;101514.69;5070257;28;20227;-63
2020/12/26 01:11:41;;;;;;;13.07;8.70;;;;;;;-0.40;84.46;101517.31;5064193;28;20707;-63
2020/12/26 01:14:08;;;;;;;13.80;7.53;;;;;;;-0.41;84.79;101518.19;5067463;28;20208;-63
2020/12/26 01:16:34;;;;;;;12.67;8.40;;;;;;;-0.39;84.69;101524.28;5068764;28;20291;-61
2020/12/26 01:19:00;;;;;;;12.37;7.47;;;;;;;-0.42;84.56;101530.41;5064695;28;20227;-62
2020/12/26 01:21:26;;;;;;;16.20;7.87;;;;;;;-0.43;84.69;101523.41;5064335;28;20288;-63
2020/12/26 01:23:52;;;;;;;18.20;8.67;;;;;;;-0.45;84.65;101512.09;5063039;28;20215;-61
2020/12/26 01:26:19;;;;;;;13.70;8.67;;;;;;;-0.43;84.71;101509.47;5067207;28;20207;-63
2020/12/26 01:28:45;;;;;;;17.10;8.50;;;;;;;-0.45;84.58;101508.59;5067344;28;20638;-62
2020/12/26 01:31:12;;;;;;;28.33;9.80;;;;;;;-0.46;84.30;101499.88;5064540;28;20248;-62
2020/12/26 01:33:38;;;;;;;15.97;9.03;;;;;;;-0.45;84.39;101508.59;5067638;28;20217;-63
2020/12/26 01:36:04;;;;;;;16.87;8.73;;;;;;;-0.46;84.40;101494.66;5067531;28;20296;-62
2020/12/26 01:38:31;;;;;;;15.90;8.87;;;;;;;-0.47;84.57;101499.88;5071821;28;20636;-63
2020/12/26 01:40:57;;;;;;;14.30;8.10;;;;;;;-0.47;84.59;101510.34;5070307;28;20276;-63
2020/12/26 01:43:23;;;;;;;11.80;8.50;;;;;;;-0.49;84.60;101514.72;5065627;28;20205;-63
2020/12/26 01:45:51;;;;;;;15.87;7.93;;;;;;;-0.50;84.76;101516.47;5068179;28;20270;-63
2020/12/26 01:48:17;;;;;;;12.87;8.10;;;;;;;-0.51;84.55;101521.69;5065088;28;20705;-63
2020/12/26 01:50:44;;;;;;;13.83;8.10;;;;;;;-0.52;84.84;101519.94;5069189;28;20680;-64
2020/12/26 01:53:11;;;;;;;19.13;8.57;;;;;;;-0.54;84.63;101522.59;5067565;28;20271;-64
2020/12/26 01:55:37;;;;;;;13.60;8.17;;;;;;;-0.54;84.77;101524.34;5068318;28;20213;-64
2020/12/26 01:58:04;;;;;;;13.37;7.80;;;;;;;-0.54;84.85;101519.13;5065308;28;20220;-64
2020/12/26 02:00:31;;;;;;;12.00;8.07;;;;;;;-0.55;84.50;101512.16;5066332;28;20413;-63
2020/12/26 02:02:57;;;;;;;16.63;8.97;;;;;;;-0.54;84.40;101516.50;5069494;28;20200;-63
2020/12/26 02:05:23;;;;;;;16.47;8.63;;;;;;;-0.53;84.56;101519.09;5063361;28;20290;-63
2020/12/26 02:07:49;;;;;;;15.27;8.90;;;;;;;-0.52;84.71;101517.34;5069548;28;20213;-63
2020/12/26 02:10:16;;;;;;;15.57;8.77;;;;;;;-0.51;84.78;101514.72;5069172;28;20229;-63
2020/12/26 02:12:42;;;;;;;14.67;8.60;;;;;;;-0.49;84.62;101499.00;5067753;28;20221;-62
2020/12/26 02:15:08;;;;;;;16.47;9.20;;;;;;;-0.48;84.82;101495.53;5070172;28;20211;-61
2020/12/26 02:17:35;;;;;;;17.73;9.40;;;;;;;-0.46;84.81;101499.88;5068667;28;20211;-63
2020/12/26 02:20:01;;;;;;;14.53;8.57;;;;;;;-0.43;84.96;101499.00;5065758;28;20200;-63
2020/12/26 02:22:27;;;;;;;17.17;9.33;;;;;;;-0.39;84.85;101504.22;5067371;28;20246;-64
2020/12/26 02:24:54;;;;;;;14.87;8.73;;;;;;;-0.37;85.01;101507.69;5068735;28;20203;-63
2020/12/26 02:27:20;;;;;;;14.90;9.10;;;;;;;-0.35;85.17;101500.69;5065515;28;20234;-62
2020/12/26 02:29:46;;;;;;;15.17;8.60;;;;;;;-0.32;85.24;101502.41;5063079;28;20192;-63
2020/12/26 02:32:12;;;;;;;15.33;9.23;;;;;;;-0.27;85.44;101502.41;5064610;28;20223;-62
2020/12/26 02:34:38;;;;;;;16.97;10.10;;;;;;;-0.24;85.03;101508.50;5069430;28;20680;-63
2020/12/26 02:37:04;;;;;;;14.20;9.07;;;;;;;-0.21;85.35;101518.97;5070771;28;20576;-62
2020/12/26 02:39:30;;;;;;;13.80;9.00;;;;;;;-0.17;85.09;101515.41;5062625;28;20228;-64
2020/12/26 02:41:57;;;;;;;15.63;9.03;;;;;;;-0.12;85.46;101516.28;5068146;28;20195;-64
2020/12/26 02:44:23;;;;;;;19.87;10.37;;;;;;;-0.09;85.36;101516.25;5069302;28;20255;-64
2020/12/26 02:46:50;;;;;;;14.43;10.37;;;;;;;-0.04;85.26;101506.63;5069309;28;20201;-62
2020/12/26 02:49:17;;;;;;;17.20;9.10;;;;;;;0.02;85.52;101504.84;5066694;28;20227;-64
2020/12/26 02:51:43;;;;;;;14.67;9.10;;;;;;;0.06;85.39;101496.09;5068939;28;20220;-63
2020/12/26 02:54:11;;;;;;;20.17;10.40;;;;;;;0.11;85.56;101502.16;5066117;28;20214;-63
2020/12/26 02:56:38;;;;;;;17.83;11.00;;;;;;;0.14;85.54;101494.28;5069163;28;20213;-64
2020/12/26 02:59:06;;;;;;;16.13;9.90;;;;;;;0.17;85.64;101499.53;5067957;28;20219;-63
2020/12/26 03:01:32;;;;;;;18.70;11.23;;;;;;;0.20;85.78;101497.72;5063684;28;20213;-63
2020/12/26 03:03:58;;;;;;;20.70;10.53;;;;;;;0.22;85.66;101503.81;5069170;28;20204;-64
2020/12/26 03:06:24;;;;;;;18.67;10.87;;;;;;;0.27;85.67;101498.56;5065705;28;20200;-63
2020/12/26 03:08:51;;;;;;;17.10;9.67;;;;;;;0.30;85.63;101491.53;5066653;28;20220;-63
2020/12/26 03:11:17;;;;;;;16.07;10.93;;;;;;;0.33;85.87;101493.28;5068412;28;20201;-64
2020/12/26 03:13:43;;;;;;;16.83;10.43;;;;;;;0.36;85.84;101493.22;5073390;28;20192;-64
2020/12/26 03:16:10;;;;;;;16.60;10.90;;;;;;;0.39;85.63;101501.06;5066373;28;20288;-64
2020/12/26 03:18:36;;;;;;;15.00;9.40;;;;;;;0.43;85.48;101494.06;5068125;28;20225;-63
2020/12/26 03:21:02;;;;;;;15.43;10.40;;;;;;;0.44;85.81;101488.81;5069813;28;20721;-61
2020/12/26 03:23:28;;;;;;;17.77;11.07;;;;;;;0.48;85.71;101494.91;5069366;28;20208;-64
2020/12/26 03:25:54;;;;;;;18.53;11.37;;;;;;;0.50;85.77;101483.53;5070730;28;20205;-64
2020/12/26 03:28:20;;;;;;;19.30;10.90;;;;;;;0.54;85.78;101492.19;5072616;28;20225;-63
2020/12/26 03:30:46;;;;;;;20.70;11.07;;;;;;;0.56;85.69;101487.81;5072663;28;20209;-63
2020/12/26 03:33:13;;;;;;;19.37;11.70;;;;;;;0.59;85.61;101493.91;5068578;28;20221;-64
2020/12/26 03:35:39;;;;;;;17.43;9.80;;;;;;;0.60;85.41;101481.66;5069534;28;20257;-64
2020/12/26 03:38:05;;;;;;;16.33;10.80;;;;;;;0.61;85.69;101483.41;5089707;22;20217;-66
2020/12/26 03:40:31;;;;;;;14.13;9.70;;;;;;;0.62;85.62;101493.00;5074691;28;20224;-65
2020/12/26 03:42:57;;;;;;;15.17;9.97;;;;;;;0.62;85.57;101493.88;5070627;28;20197;-65
2020/12/26 03:45:23;;;;;;;15.03;10.03;;;;;;;0.63;85.67;101493.00;5071587;28;20201;-66
2020/12/26 03:47:49;;;;;;;14.67;10.23;;;;;;;0.63;85.57;101482.53;5073399;28;20304;-65
2020/12/26 03:50:16;;;;;;;23.97;10.80;;;;;;;0.62;85.61;101480.78;5070890;28;20655;-64
2020/12/26 03:52:42;;;;;;;16.10;9.77;;;;;;;0.64;85.54;101492.13;5066288;28;20281;-65
2020/12/26 03:55:08;;;;;;;20.27;11.70;;;;;;;0.64;85.35;101483.38;5069713;28;20212;-65
2020/12/26 03:57:34;;;;;;;16.00;11.17;;;;;;;0.63;85.32;101490.38;5072690;28;20204;-66
2020/12/26 04:00:00;;;;;;;17.13;9.90;;;;;;;0.64;85.46;101491.25;5071503;28;20216;-65
2020/12/26 04:02:26;;;;;;;15.53;10.80;;;;;;;0.64;85.29;101484.25;5072228;28;20200;-66
2020/12/26 04:04:52;;;;;;;17.40;10.83;;;;;;;0.66;85.68;101490.38;5071724;28;20201;-65
2020/12/26 04:07:19;;;;;;;20.47;11.60;;;;;;;0.64;85.55;101492.13;5072970;28;20231;-66
2020/12/26 04:09:45;;;;;;;17.10;10.47;;;;;;;0.65;85.15;101491.25;5068716;28;20220;-67
2020/12/26 04:12:11;;;;;;;16.27;10.67;;;;;;;0.66;85.43;101479.88;5070506;28;20221;-66
2020/12/26 04:14:37;;;;;;;18.73;11.53;;;;;;;0.68;85.24;101477.25;5070096;28;20201;-65
2020/12/26 04:17:03;;;;;;;21.13;10.97;;;;;;;0.68;85.29;101483.34;5069469;28;20665;-67
2020/12/26 04:19:29;;;;;;;18.70;11.80;;;;;;;0.68;85.16;101480.72;5072686;28;20565;-68
2020/12/26 04:21:56;;;;;;;18.60;11.03;;;;;;;0.69;85.53;101476.38;5071390;28;20649;-66
2020/12/26 04:24:23;;;;;;;20.87;12.30;;;;;;;0.69;85.30;101469.38;5071825;28;20199;-66
2020/12/26 04:26:49;;;;;;;16.33;10.70;;;;;;;0.69;85.09;101461.50;5068192;28;20335;-66
2020/12/26 04:29:15;;;;;;;21.23;12.10;;;;;;;0.68;85.41;101457.13;5069407;28;20213;-66
2020/12/26 04:31:42;;;;;;;20.27;11.70;;;;;;;0.71;85.41;101463.25;5071149;28;20224;-66
2020/12/26 04:34:08;;;;;;;14.80;11.37;;;;;;;0.70;85.37;101449.25;5071562;28;20197;-66
2020/12/26 04:36:34;;;;;;;15.43;11.30;;;;;;;0.74;85.44;101450.06;5058633;28;20288;-65
2020/12/26 04:39:00;;;;;;;15.70;11.10;;;;;;;0.76;85.59;101453.56;5079986;28;20240;-67
2020/12/26 04:41:27;;;;;;;18.63;12.17;;;;;;;0.77;85.42;101453.53;5059462;28;20202;-64
2020/12/26 04:43:54;;;;;;;18.17;12.20;;;;;;;0.78;85.40;101452.66;5062151;28;20208;-65
2020/12/26 04:46:25;;;;;;;21.23;12.37;;;;;;;0.81;85.81;101459.63;5053374;28;20669;-66
2020/12/26 04:49:03;;;;;;;20.93;12.47;;;;;;;0.84;85.54;101460.47;5069742;28;20220;-66
2020/12/26 04:51:32;;;;;;;17.63;11.83;;;;;;;0.86;85.58;101445.59;5070825;28;20224;-65
2020/12/26 04:54:07;;;;;;;19.07;13.07;;;;;;;0.88;85.85;101446.44;5069359;28;20201;-64
2020/12/26 04:56:40;;;;;;;18.07;11.70;;;;;;;0.91;85.47;101440.28;5061879;28;20207;-65
2020/12/26 04:59:07;;;;;;;20.50;12.17;;;;;;;0.93;85.71;101441.13;5068303;28;20229;-65
2020/12/26 05:01:37;;;;;;;20.97;12.50;;;;;;;0.95;85.72;101432.34;5064434;28;20650;-65
2020/12/26 05:04:03;;;;;;;27.10;11.03;;;;;;;0.98;85.61;101428.84;5068817;28;20287;-66
2020/12/26 05:06:31;;;;;;;20.67;11.50;;;;;;;0.99;85.42;101425.34;5063986;28;20562;-66
2020/12/26 05:08:57;;;;;;;17.43;12.13;;;;;;;1.01;85.84;101420.94;5059396;28;20582;-65
2020/12/26 05:11:23;;;;;;;19.50;12.87;;;;;;;1.02;85.33;101415.69;5069900;28;20224;-66
2020/12/26 05:13:50;;;;;;;16.90;10.80;;;;;;;1.04;85.70;101402.53;5070061;28;20325;-63
2020/12/26 05:16:16;;;;;;;17.07;11.17;;;;;;;1.05;85.64;101406.91;5062226;28;20661;-66
2020/12/26 05:18:42;;;;;;;16.40;10.97;;;;;;;1.07;85.87;101399.03;5071075;28;20762;-67
2020/12/26 05:21:08;;;;;;;16.40;10.70;;;;;;;1.09;85.81;101395.47;5069897;28;20211;-66
2020/12/26 05:23:35;;;;;;;16.27;11.13;;;;;;;1.12;85.31;101399.81;5057789;28;20646;-66
2020/12/26 05:26:01;;;;;;;13.57;9.97;;;;;;;1.13;85.25;101397.16;5066772;28;20205;-65
2020/12/26 05:28:31;;;;;;;16.37;10.47;;;;;;;1.14;85.70;101404.16;5069788;28;20307;-66
2020/12/26 05:31:05;;;;;;;16.50;10.77;;;;;;;1.15;85.71;101405.03;5070622;28;20205;-64
2020/12/26 05:33:32;;;;;;;18.77;11.27;;;;;;;1.16;85.79;101410.25;5060713;28;20256;-65
2020/12/26 05:36:04;;;;;;;17.53;10.60;;;;;;;1.17;85.72;101406.75;5063361;28;20209;-66
2020/12/26 05:38:30;;;;;;;16.37;11.37;;;;;;;1.19;85.48;101396.22;5079821;28;20281;-67
2020/12/26 05:40:58;;;;;;;16.17;10.90;;;;;;;1.18;85.23;101403.22;5070992;28;20273;-66
2020/12/26 05:43:26;;;;;;;16.77;11.53;;;;;;;1.19;85.82;101394.47;5070333;28;20833;-67
2020/12/26 05:45:52;;;;;;;16.20;10.23;;;;;;;1.20;85.35;101395.34;5070203;28;20603;-65
2020/12/26 05:48:21;;;;;;;16.37;9.53;;;;;;;1.21;85.39;101387.44;5070098;28;20274;-67
2020/12/26 05:50:47;;;;;;;16.17;10.77;;;;;;;1.21;85.17;101384.84;5061542;28;20209;-66
2020/12/26 05:53:16;;;;;;;16.17;11.03;;;;;;;1.22;85.88;101396.19;5065002;28;20304;-65
2020/12/26 05:55:44;;;;;;;16.00;10.97;;;;;;;1.22;85.76;101390.94;5065485;28;20189;-66
2020/12/26 05:58:10;;;;;;;13.07;10.20;;;;;;;1.22;85.42;101410.19;5067922;28;20315;-68
2020/12/26 06:00:38;;;;;;;15.07;9.70;;;;;;;1.23;85.79;101414.53;5067113;28;20200;-66
2020/12/26 06:03:25;;;;;;;12.67;9.33;;;;;;;1.25;85.32;101411.91;5060706;28;20196;-67
2020/12/26 06:05:53;;;;;;;16.67;10.17;;;;;;;1.26;85.80;101408.38;5060775;28;20246;-65
2020/12/26 06:08:21;;;;;;;15.43;8.77;;;;;;;1.27;85.77;101407.47;5070140;28;20282;-66
2020/12/26 06:10:52;;;;;;;26.60;10.13;;;;;;;1.28;85.78;101404.84;5069688;28;20203;-67
2020/12/26 06:13:19;;;;;;;16.77;9.80;;;;;;;1.29;85.83;101409.19;5057192;28;20223;-66
2020/12/26 06:15:50;;;;;;;16.87;9.63;;;;;;;1.29;85.33;101414.44;5055524;28;20244;-68
2020/12/26 06:18:18;;;;;;;14.17;8.43;;;;;;;1.31;85.86;101409.19;5068459;28;20243;-66
2020/12/26 06:20:46;;;;;;;11.40;8.27;;;;;;;1.33;85.41;101407.41;5061009;28;20201;-67
2020/12/26 06:23:16;;;;;;;10.33;8.47;;;;;;;1.34;85.82;101417.03;5068337;28;20196;-68
2020/12/26 06:25:44;;;;;;;14.03;8.87;;;;;;;1.35;85.33;101413.50;5069247;28;20197;-68
2020/12/26 06:28:24;;;;;;;13.20;8.37;;;;;;;1.35;85.91;101411.75;5069255;28;20220;-66
2020/12/26 06:30:50;;;;;;;11.17;8.57;;;;;;;1.37;85.53;101417.84;5069683;28;20196;-65
2020/12/26 06:33:16;;;;;;;11.17;8.93;;;;;;;1.38;85.76;101424.84;5062400;28;20308;-66
2020/12/26 06:35:43;;;;;;;12.00;9.37;;;;;;;1.40;85.87;101416.94;5063768;28;20228;-66
2020/12/26 06:38:29;;;;;;;12.17;8.77;;;;;;;1.42;85.26;101414.31;5070730;28;20260;-65
2020/12/26 06:40:57;;;;;;;16.20;8.33;;;;;;;1.42;85.49;101412.53;5063908;28;20201;-67
2020/12/26 06:43:49;;;;;;;12.30;8.40;;;;;;;1.43;85.86;101410.78;5063507;28;20204;-67
2020/12/26 06:46:42;;;;;;;12.27;8.27;;;;;;;1.44;85.94;101417.75;5067489;28;20663;-67
2020/12/26 06:49:25;;;;;;;12.07;8.30;;;;;;;1.43;85.71;101395.91;5022590;28;20220;-66
2020/12/26 06:51:51;;;;;;;11.67;8.47;;;;;;;1.44;85.35;101402.88;5071978;28;20220;-68
2020/12/26 06:54:37;;;;;;;14.37;9.13;;;;;;;1.44;85.83;101396.75;5073690;28;20209;-68
2020/12/26 06:57:03;;;;;;;14.43;8.67;;;;;;;1.47;85.77;101388.84;5071036;28;20204;-64
2020/12/26 06:59:32;;;;;;;13.33;7.93;;;;;;;1.46;85.82;101395.84;5071435;28;20228;-68
2020/12/26 07:02:16;;;;;;;12.23;8.07;;;;;;;1.48;85.05;101396.69;5067449;28;20288;-67
2020/12/26 07:04:42;;;;;;;11.43;8.10;;;;;;;1.48;85.13;101395.81;5070905;28;20201;-67
2020/12/26 07:07:11;;;;;;;9.63;8.27;;;;;;;1.47;85.79;101397.56;5067476;28;20645;-66
2020/12/26 07:09:49;;;;;;;12.53;7.63;;;;;;;1.49;85.47;101405.44;5075356;28;20269;-66
2020/12/26 07:12:16;;;;;;;10.47;8.50;;;;;;;1.48;85.25;101404.56;5075796;28;20227;-66
2020/12/26 07:14:44;;;;;;;12.73;7.43;;;;;;;1.48;85.23;101396.69;5073711;28;20193;-68
2020/12/26 07:17:26;;;;;;;12.57;8.43;;;;;;;1.46;85.20;101398.47;5076334;28;20287;-67
2020/12/26 07:19:53;;;;;;;9.70;7.73;;;;;;;1.46;85.46;101400.22;5074463;28;20612;-68
2020/12/26 07:22:22;;;;;;;12.00;8.00;;;;;;;1.45;85.44;101399.34;5076484;28;20200;-68
2020/12/26 07:24:51;;;;;;;11.57;8.40;;;;;;;1.42;85.54;101399.44;5074468;28;20295;-67
2020/12/26 07:27:26;;;;;;;10.00;7.90;;;;;;;1.41;85.78;101396.81;5076353;28;20201;-68
2020/12/26 07:30:05;;;;;;;10.73;7.50;;;;;;;1.38;85.64;101406.47;5074920;28;20696;-68
2020/12/26 07:32:48;;;;;;;10.50;7.83;;;;;;;1.38;85.29;101408.22;5076516;28;20216;-67
2020/12/26 07:35:30;;;;;;;9.47;6.93;;;;;;;1.35;85.43;101411.75;5074534;28;20730;-66
2020/12/26 07:37:59;;;;;;;11.03;7.93;;;;;;;1.34;85.12;101412.63;5081752;28;20275;-66
2020/12/26 07:40:27;;;;;;;10.77;7.93;;;;;;;1.33;85.19;101408.28;5075645;28;20196;-67
2020/12/26 07:42:54;;;;;;;11.30;8.17;;;;;;;1.33;85.25;101420.53;5073585;28;20231;-66
2020/12/26 07:45:22;;;;;;;9.43;7.50;;;;;;;1.32;85.44;101424.03;5075878;28;20239;-66
2020/12/26 07:47:49;;;;;;;10.73;7.37;;;;;;;1.30;85.42;101416.19;5072885;28;20300;-66
2020/12/26 07:50:17;;;;;;;11.53;7.53;;;;;;;1.30;84.91;101413.56;5074669;28;20197;-66
2020/12/26 07:52:47;;;;;;;9.70;6.63;;;;;;;1.28;85.32;101412.72;5075462;28;20307;-66
2020/12/26 07:55:13;;;;;;;9.40;7.63;;;;;;;1.29;85.40;101413.56;5074406;28;20204;-66
2020/12/26 07:57:40;;;;;;;11.07;8.40;;;;;;;1.29;85.44;101414.44;5073302;28;20211;-66
2020/12/26 08:00:07;;;;;;;11.30;7.50;;;;;;;1.29;85.38;101427.56;5072012;28;20225;-66
2020/12/26 08:02:33;;;;;;;12.60;8.23;;;;;;;1.28;85.66;101425.81;5071213;28;20200;-66
2020/12/26 08:04:59;;;;;;;11.50;7.90;;;;;;;1.31;85.46;101427.53;5073022;28;20200;-68
2020/12/26 08:07:31;;;;;;;9.27;8.30;;;;;;;1.32;85.46;101432.78;5064076;28;20208;-66
2020/12/26 08:09:58;;;;;;;11.47;8.10;;;;;;;1.33;85.28;101426.66;5070954;28;20258;-66
2020/12/26 08:12:25;;;;;;;10.03;8.07;;;;;;;1.36;85.28;101431.84;5072358;28;20216;-67
2020/12/26 08:14:57;;;;;;;11.20;8.13;;;;;;;1.41;85.77;101430.94;5070078;28;20292;-66
2020/12/26 08:17:24;;;;;;;11.60;8.07;;;;;;;1.43;84.96;101437.03;5071935;28;20197;-65
2020/12/26 08:19:57;;;;;;;10.40;7.73;;;;;;;1.46;85.11;101432.59;5069393;28;20311;-66
2020/12/26 08:22:23;;;;;;;12.17;7.33;;;;;;;1.47;85.28;101429.06;5071976;28;20849;-66
2020/12/26 08:24:50;;;;;;;11.93;7.77;;;;;;;1.51;85.26;101429.91;5071349;28;20228;-66
2020/12/26 08:27:17;;;;;;;11.80;8.13;;;;;;;1.53;85.12;101436.88;5070701;28;20200;-65
2020/12/26 08:29:45;;;;;;;13.37;8.63;;;;;;;1.54;84.84;101436.00;5070591;28;20628;-66
2020/12/26 08:32:14;;;;;;;11.63;8.17;;;;;;;1.56;84.74;101441.22;5072583;28;20227;-66
2020/12/26 08:34:52;;;;;;;12.70;9.07;;;;;;;1.58;85.44;101439.44;5070168;28;20564;-66
2020/12/26 08:37:23;;;;;;;13.27;9.33;;;;;;;1.57;84.67;101433.31;5074141;28;20742;-67
2020/12/26 08:39:53;;;;;;;13.30;8.77;;;;;;;1.59;85.05;101434.19;5072525;28;20231;-67
2020/12/26 08:42:21;;;;;;;14.50;9.50;;;;;;;1.60;85.15;101440.31;5069994;28;20200;-67
2020/12/26 08:44:47;;;;;;;11.30;8.10;;;;;;;1.62;85.08;101454.25;5071401;28;20207;-66
2020/12/26 08:47:25;;;;;;;13.93;8.90;;;;;;;1.63;85.20;101443.72;5065459;28;20694;-66
2020/12/26 08:49:51;;;;;;;14.67;9.67;;;;;;;1.65;84.52;101430.56;5072045;28;20216;-66
2020/12/26 08:52:22;;;;;;;14.53;9.37;;;;;;;1.67;84.74;101424.41;5070075;28;20678;-67
2020/12/26 08:55:03;;;;;;;19.00;12.57;;;;;;;1.70;85.14;101431.38;5069915;28;20646;-67
2020/12/26 08:57:29;;;;;;;13.47;10.23;;;;;;;1.73;84.45;101431.34;5062388;28;20263;-66
2020/12/26 08:59:55;;;;;;;15.80;11.37;;;;;;;1.76;84.83;101433.94;5067839;28;20257;-66
2020/12/26 09:02:22;;;;;;;17.07;10.40;;;;;;;1.81;84.92;101436.47;5069276;28;20197;-66
2020/12/26 09:04:48;;;;;;;13.27;9.50;;;;;;;1.82;85.30;101439.06;5068718;28;20212;-66
2020/12/26 09:07:21;;;;;;;13.60;10.33;;;;;;;1.87;84.92;101433.75;5068769;28;20205;-66
2020/12/26 09:09:48;;;;;;;18.50;10.83;;;;;;;1.89;84.98;101430.22;5067626;28;20228;-67
2020/12/26 09:12:15;;;;;;;13.77;9.90;;;;;;;1.91;85.18;101436.31;5070661;28;20732;-66
2020/12/26 09:14:41;;;;;;;20.23;11.53;;;;;;;1.94;84.37;101431.03;5067650;28;20201;-67
2020/12/26 09:17:09;;;;;;;15.57;10.73;;;;;;;1.98;84.62;101439.72;5070534;28;20295;-65
2020/12/26 09:19:43;;;;;;;16.53;11.73;;;;;;;2.01;84.33;101437.91;5067315;28;20654;-67
2020/12/26 09:22:10;;;;;;;20.63;15.63;;;;;;;2.04;84.84;101432.59;5067367;28;20196;-67
2020/12/26 09:24:37;;;;;;;17.47;11.80;;;;;;;2.07;84.63;101429.94;5065761;28;20223;-67
2020/12/26 09:27:03;;;;;;;15.03;11.53;;;;;;;2.11;84.39;101432.53;5069483;28;20201;-67
2020/12/26 09:29:29;;;;;;;25.17;17.63;;;;;;;2.16;84.02;101435.91;5068254;28;20225;-67
2020/12/26 09:31:55;;;;;;;15.53;11.47;;;;;;;2.20;84.61;101429.72;5063204;28;20205;-68
2020/12/26 09:34:23;;;;;;;16.87;12.10;;;;;;;2.23;84.57;101440.19;5066949;28;20196;-69
2020/12/26 09:37:03;;;;;;;18.77;12.47;;;;;;;2.26;83.90;101448.03;5051349;28;20554;-67
2020/12/26 09:39:29;;;;;;;20.77;13.30;;;;;;;2.28;84.27;101456.78;5064862;28;20235;-66
2020/12/26 09:42:00;;;;;;;17.97;12.80;;;;;;;2.30;84.41;101447.97;5064356;28;20269;-67
2020/12/26 09:44:26;;;;;;;19.13;12.40;;;;;;;2.33;83.71;101433.91;5066279;28;20563;-67
2020/12/26 09:46:57;;;;;;;25.80;17.13;;;;;;;2.36;83.40;101434.69;5064880;28;20201;-68
2020/12/26 09:49:23;;;;;;;19.03;13.83;;;;;;;2.39;83.96;101431.16;5066741;28;20312;-66
2020/12/26 09:51:50;;;;;;;17.90;11.93;;;;;;;2.42;83.92;101433.75;5063169;28;20205;-67
2020/12/26 09:54:16;;;;;;;16.27;12.13;;;;;;;2.46;84.06;101437.19;5068338;28;20569;-66
2020/12/26 09:56:42;;;;;;;25.30;14.70;;;;;;;2.48;83.43;101431.00;5070716;28;20266;-68
2020/12/26 09:59:08;;;;;;;21.33;13.53;;;;;;;2.53;83.44;101423.88;5068981;28;20235;-68
2020/12/26 10:01:34;;;;;;;19.93;13.87;;;;;;;2.56;84.00;101425.59;5070758;28;20201;-70
2020/12/26 10:04:01;;;;;;;23.60;13.77;;;;;;;2.59;83.50;101428.19;5071441;28;20196;-69
2020/12/26 10:06:27;;;;;;;22.43;15.43;;;;;;;2.65;82.87;101423.69;5070126;28;20215;-68
2020/12/26 10:08:54;;;;;;;24.27;15.00;;;;;;;2.69;82.83;101417.44;5067546;28;20684;-67
2020/12/26 10:11:20;;;;;;;23.77;14.77;;;;;;;2.73;83.47;101408.59;5068680;28;20209;-67
2020/12/26 10:13:47;;;;;;;26.27;14.70;;;;;;;2.78;82.75;101404.13;5066923;28;20212;-68
2020/12/26 10:16:16;;;;;;;24.60;15.87;;;;;;;2.82;82.85;101394.44;5065362;28;20262;-67
2020/12/26 10:18:42;;;;;;;25.23;16.07;;;;;;;2.86;83.08;101398.75;5067783;28;20225;-67
2020/12/26 10:21:08;;;;;;;25.50;16.33;;;;;;;2.88;82.30;101389.03;5067624;28;20204;-66
2020/12/26 10:23:34;;;;;;;23.60;15.73;;;;;;;2.90;83.27;101384.59;5069304;28;20201;-66
2020/12/26 10:26:05;;;;;;;20.00;14.30;;;;;;;2.93;82.59;101388.94;5069102;28;20354;-66
2020/12/26 10:28:32;;;;;;;27.40;15.47;;;;;;;2.94;82.60;101382.78;5066358;28;20267;-65
2020/12/26 10:30:58;;;;;;;26.47;16.30;;;;;;;2.96;82.23;101381.00;5068779;28;20587;-66
2020/12/26 10:33:24;;;;;;;25.47;15.20;;;;;;;2.97;82.43;101386.22;5068868;28;20293;-67
2020/12/26 10:35:50;;;;;;;24.50;14.33;;;;;;;2.99;82.34;101373.91;5069364;28;20205;-65
2020/12/26 10:38:16;;;;;;;26.47;14.70;;;;;;;3.01;82.59;101379.13;5067758;28;20228;-65
2020/12/26 10:40:42;;;;;;;25.13;14.23;;;;;;;3.03;81.71;101370.31;5067571;28;20204;-66
2020/12/26 10:43:09;;;;;;;22.20;14.57;;;;;;;3.05;81.96;101371.13;5069550;28;20193;-66
2020/12/26 10:45:35;;;;;;;24.20;13.90;;;;;;;3.07;81.51;101363.19;5069719;28;20200;-66
2020/12/26 10:48:01;;;;;;;18.33;11.80;;;;;;;3.11;81.99;101352.59;5067191;28;20189;-65
2020/12/26 10:50:27;;;;;;;23.33;13.97;;;;;;;3.13;81.19;101335.00;5063363;28;20201;-66
2020/12/26 10:52:53;;;;;;;16.80;12.07;;;;;;;3.16;81.68;101334.06;5063889;28;20239;-67
2020/12/26 10:55:19;;;;;;;23.57;13.67;;;;;;;3.20;81.87;101329.59;5066602;28;20209;-65
2020/12/26 10:57:45;;;;;;;20.37;11.83;;;;;;;3.23;81.63;101325.13;5065651;28;20232;-66
2020/12/26 11:00:13;;;;;;;16.23;11.10;;;;;;;3.29;80.99;101324.13;5069288;28;20216;-66
2020/12/26 11:02:39;;;;;;;14.60;11.50;;;;;;;3.32;81.34;101324.94;5067034;28;20607;-64
2020/12/26 11:05:05;;;;;;;17.10;10.30;;;;;;;3.37;81.35;101317.78;5071774;28;20200;-65
2020/12/26 11:07:32;;;;;;;17.87;12.93;;;;;;;3.39;81.57;101310.72;5069211;28;20212;-65
2020/12/26 11:09:58;;;;;;;13.73;9.20;;;;;;;3.42;80.87;101313.25;5071132;28;20311;-65
2020/12/26 11:12:24;;;;;;;18.10;11.17;;;;;;;3.45;81.05;101326.38;5059752;28;20231;-64
2020/12/26 11:14:50;;;;;;;17.53;12.50;;;;;;;3.47;80.11;101315.81;5071310;28;20727;-65
2020/12/26 11:17:17;;;;;;;16.73;12.10;;;;;;;3.48;80.72;101309.63;5069705;28;20205;-64
2020/12/26 11:19:43;;;;;;;16.33;10.00;;;;;;;3.49;79.82;101293.81;5068425;28;20219;-64
2020/12/26 11:22:09;;;;;;;13.80;10.40;;;;;;;3.52;80.06;101303.41;5060181;28;20194;-64